Flight Track Log - Related Links

Times and Time Zones

All times are in EST time to prevent confusion due to time zone crossing. See the N496ER flight status page for this flight to view local times or setup timezone preferences in your user account.

Time Position Orientation Groundspeed Altitude Reporting Facility
EST Latitude Longitude Course Direction KTS MPH feet Rate Location/Type
Tue 08:01:53 PM 28.3000 -81.4500 60° Northeast 88 101 400  Level Orlando TRACON
Tue 08:03:11 PM 28.3000 -81.4667 270° West 73 84 1,200 609 Climbing Orlando TRACON
Tue 08:04:11 PM 28.3167 -81.4833 319° Northwest 79 91 1,800 507 Climbing Orlando TRACON
Tue 08:04:22 PM 28.3221 -81.4879 331° Northwest 78 90 1,800 414 Level FlightAware ADS-B
Tue 08:04:40 PM 28.3278 -81.4918 329° Northwest 79 91 2,000 497 Climbing FlightAware ADS-B
Tue 08:07:00 PM 28.3607 -81.4275 60° Northeast  Level FlightAware Approximate
Tue 08:10:24 PM 28.4606 -81.5249 319° Northwest 88 101 4,800  Level FlightAware ADS-B
Tue 08:10:57 PM 28.4751 -81.5244 North 99 114 4,800  Level FlightAware ADS-B
Tue 08:11:53 PM 28.5018 -81.5209 North 104 120 4,800  Level FlightAware ADS-B
Tue 08:12:15 PM 28.5118 -81.5200 North 102 117 4,800  Level FlightAware ADS-B
Tue 08:12:35 PM 28.5218 -81.5195 North 105 121 4,800  Level FlightAware ADS-B
Tue 08:12:55 PM 28.5314 -81.5189 North 107 123 4,800 132 Level FlightAware ADS-B
Tue 08:14:06 PM 28.5667 -81.5167 North 109 125 5,000 92 Climbing Orlando TRACON
Tue 08:15:06 PM 28.6000 -81.5000 24° Northeast 106 122 5,000 -50 Level Orlando TRACON
Tue 08:16:06 PM 28.6167 -81.5000 360° North 99 114 4,900 -50 Descending Orlando TRACON
Tue 08:17:06 PM 28.6500 -81.4833 24° Northeast 100 115 4,900  Level Orlando TRACON
Tue 08:18:00 PM 28.6667 -81.4667 41° Northeast 99 114 4,900 53 Level Orlando TRACON
Tue 08:19:00 PM 28.7000 -81.4667 360° North 100 115 5,000 48 Climbing Orlando TRACON
Tue 08:20:06 PM 28.7167 -81.4500 41° Northeast 101 116 5,000 38 Level Orlando TRACON
Tue 08:21:39 PM 28.7594 -81.4314 21° North 101 116 5,100 -39 Climbing Jacksonville Center
Tue 08:22:40 PM 28.7886 -81.4261 North 102 117 4,900 -98 Descending Jacksonville Center
Tue 08:23:41 PM 28.8156 -81.4139 22° Northeast 100 115 4,900 50 Level Jacksonville Center
Tue 08:24:41 PM 28.8425 -81.4042 18° North 100 115 5,000 50 Climbing Jacksonville Center
Tue 08:25:42 PM 28.8675 -81.3942 19° North 99 114 5,000  Level Jacksonville Center
Tue 08:26:43 PM 28.8944 -81.3842 18° North 101 116 5,000  Level Jacksonville Center
Tue 08:27:44 PM 28.9194 -81.3719 23° Northeast 100 115 5,000  Level Jacksonville Center
Tue 08:28:44 PM 28.9483 -81.3575 24° Northeast 107 123 5,000 -50 Level Jacksonville Center
Tue 08:29:45 PM 28.9775 -81.3381 30° Northeast 112 129 4,900 -148 Descending Jacksonville Center
Tue 08:30:46 PM 28.9936 -81.3092 57° Northeast 122 140 4,700 -295 Descending Jacksonville Center
Tue 08:31:47 PM 29.0058 -81.2733 69° East 119 137 4,300 -397 Descending Jacksonville Center
Tue 08:32:47 PM 29.0158 -81.2353 73° East 121 139 3,900 -595 Descending Jacksonville Center
Tue 08:33:48 PM 29.0217 -81.1994 79° East 125 144 3,100 -492 Descending Jacksonville Center
Tue 08:34:49 PM 29.0231 -81.1614 88° East 106 122 2,900 -99 Descending Jacksonville Center
Tue 08:35:49 PM 29.0206 -81.1283 95° East 107 123 2,900 50 Level Jacksonville Center
Tue 08:36:50 PM 29.0242 -81.0950 83° East 107 123 3,000 49 Climbing Jacksonville Center
Tue 08:37:51 PM 29.0281 -81.0617 82° East 103 119 3,000 -248 Level Jacksonville Center
Tue 08:38:51 PM 29.0294 -81.0261 87° East 116 133 2,500 -645 Descending Jacksonville Center
Tue 08:39:52 PM 29.0311 -80.9881 87° East 116 133 1,700 -492 Descending Jacksonville Center
Tue 08:40:53 PM 29.0519 -80.9925 349° North 95 109 1,500 -99 Descending Jacksonville Center
Tue 08:41:53 PM 29.0731 -81.0039 335° Northwest 81 93 1,500 50 Level Jacksonville Center
Tue 08:42:54 PM 29.0961 -81.0153 337° Northwest 87 100 1,600  Climbing Jacksonville Center
Tue 08:43:55 PM 29.1172 -81.0267 335° Northwest 86 99 1,500 -347 Descending Jacksonville Center
Tue 08:44:55 PM 29.1403 -81.0336 345° North 91 105 900 -545 Descending Jacksonville Center
Tue 08:45:56 PM 29.1592 -81.0450 332° Northwest 79 91 400 -492 Descending Jacksonville Center
Tue 08:47:00 PM 29.1667 -81.0500 339° North  Level FlightAware Approximate
Tue 08:54:00 PM 29.1799 -81.0581 339° North  Level Estimated
Tue 08:55:00 PM 29.1799 -81.0581 339° North  Level Estimated
Tue 08:56:00 PM 29.1799 -81.0581 339° North  Level Estimated

Login

Don't have an account? Register now (free) for customized features, flight alerts, and more!